sensor_id;sensor_type;location;lat;lon;timestamp;P1;durP1;ratioP1;P2;durP2;ratioP2
6832;SDS011;3454;42.654;23.378;2024-01-06T00:01:28;22.73;;;10.47;;
6832;SDS011;3454;42.654;23.378;2024-01-06T00:03:53;23.50;;;12.47;;
6832;SDS011;3454;42.654;23.378;2024-01-06T00:06:19;28.73;;;14.17;;
6832;SDS011;3454;42.654;23.378;2024-01-06T00:08:44;26.10;;;14.03;;
6832;SDS011;3454;42.654;23.378;2024-01-06T00:11:10;20.20;;;12.53;;
6832;SDS011;3454;42.654;23.378;2024-01-06T00:13:35;25.67;;;13.27;;
6832;SDS011;3454;42.654;23.378;2024-01-06T00:16:01;30.13;;;13.23;;
6832;SDS011;3454;42.654;23.378;2024-01-06T00:18:27;27.13;;;13.47;;
6832;SDS011;3454;42.654;23.378;2024-01-06T00:20:52;26.67;;;13.83;;
6832;SDS011;3454;42.654;23.378;2024-01-06T00:23:18;28.90;;;13.67;;
6832;SDS011;3454;42.654;23.378;2024-01-06T00:25:43;32.40;;;14.63;;
6832;SDS011;3454;42.654;23.378;2024-01-06T00:28:09;32.17;;;16.53;;
6832;SDS011;3454;42.654;23.378;2024-01-06T00:30:35;29.57;;;14.30;;
6832;SDS011;3454;42.654;23.378;2024-01-06T00:33:00;36.73;;;16.30;;
6832;SDS011;3454;42.654;23.378;2024-01-06T00:35:26;36.47;;;17.07;;
6832;SDS011;3454;42.654;23.378;2024-01-06T00:37:51;34.93;;;17.00;;
6832;SDS011;3454;42.654;23.378;2024-01-06T00:40:17;36.07;;;17.63;;
6832;SDS011;3454;42.654;23.378;2024-01-06T00:42:44;35.83;;;15.40;;
6832;SDS011;3454;42.654;23.378;2024-01-06T00:45:10;29.27;;;14.93;;
6832;SDS011;3454;42.654;23.378;2024-01-06T00:47:36;29.30;;;15.97;;
6832;SDS011;3454;42.654;23.378;2024-01-06T00:50:02;36.53;;;15.43;;
6832;SDS011;3454;42.654;23.378;2024-01-06T00:52:27;36.07;;;16.07;;
6832;SDS011;3454;42.654;23.378;2024-01-06T00:54:53;30.10;;;15.40;;
6832;SDS011;3454;42.654;23.378;2024-01-06T00:57:19;26.57;;;15.40;;
6832;SDS011;3454;42.654;23.378;2024-01-06T00:59:49;32.80;;;15.90;;
6832;SDS011;3454;42.654;23.378;2024-01-06T01:02:14;26.53;;;15.37;;
6832;SDS011;3454;42.654;23.378;2024-01-06T01:04:40;30.20;;;14.60;;
6832;SDS011;3454;42.654;23.378;2024-01-06T01:07:05;27.67;;;14.23;;
6832;SDS011;3454;42.654;23.378;2024-01-06T01:09:31;30.53;;;15.57;;
6832;SDS011;3454;42.654;23.378;2024-01-06T01:11:56;25.00;;;14.27;;
6832;SDS011;3454;42.654;23.378;2024-01-06T01:14:22;34.43;;;16.80;;
6832;SDS011;3454;42.654;23.378;2024-01-06T01:16:47;30.90;;;15.13;;
6832;SDS011;3454;42.654;23.378;2024-01-06T01:19:13;30.30;;;14.37;;
6832;SDS011;3454;42.654;23.378;2024-01-06T01:21:39;29.80;;;14.50;;
6832;SDS011;3454;42.654;23.378;2024-01-06T01:24:05;30.53;;;14.07;;
6832;SDS011;3454;42.654;23.378;2024-01-06T01:26:30;30.93;;;14.67;;
6832;SDS011;3454;42.654;23.378;2024-01-06T01:28:56;26.43;;;12.27;;
6832;SDS011;3454;42.654;23.378;2024-01-06T01:31:21;34.43;;;18.73;;
6832;SDS011;3454;42.654;23.378;2024-01-06T01:33:47;29.47;;;16.03;;
6832;SDS011;3454;42.654;23.378;2024-01-06T01:36:12;25.80;;;12.83;;
6832;SDS011;3454;42.654;23.378;2024-01-06T01:38:38;34.43;;;17.23;;
6832;SDS011;3454;42.654;23.378;2024-01-06T01:41:03;24.60;;;13.53;;
6832;SDS011;3454;42.654;23.378;2024-01-06T01:43:29;27.63;;;13.20;;
6832;SDS011;3454;42.654;23.378;2024-01-06T01:45:55;28.43;;;13.70;;
6832;SDS011;3454;42.654;23.378;2024-01-06T01:48:22;27.93;;;14.60;;
6832;SDS011;3454;42.654;23.378;2024-01-06T01:50:49;27.33;;;16.07;;
6832;SDS011;3454;42.654;23.378;2024-01-06T01:53:15;29.50;;;14.73;;
6832;SDS011;3454;42.654;23.378;2024-01-06T01:55:41;28.57;;;14.97;;
6832;SDS011;3454;42.654;23.378;2024-01-06T01:58:08;33.13;;;15.30;;
6832;SDS011;3454;42.654;23.378;2024-01-06T02:00:35;27.87;;;14.20;;
6832;SDS011;3454;42.654;23.378;2024-01-06T02:03:01;30.10;;;14.20;;
6832;SDS011;3454;42.654;23.378;2024-01-06T02:05:30;26.63;;;14.80;;
6832;SDS011;3454;42.654;23.378;2024-01-06T02:07:56;26.50;;;15.27;;
6832;SDS011;3454;42.654;23.378;2024-01-06T02:10:21;28.97;;;14.63;;
6832;SDS011;3454;42.654;23.378;2024-01-06T02:12:47;31.33;;;16.60;;
6832;SDS011;3454;42.654;23.378;2024-01-06T02:15:13;27.20;;;15.70;;
6832;SDS011;3454;42.654;23.378;2024-01-06T02:17:39;24.97;;;13.67;;
6832;SDS011;3454;42.654;23.378;2024-01-06T02:20:06;30.50;;;15.83;;
6832;SDS011;3454;42.654;23.378;2024-01-06T02:22:34;30.50;;;16.23;;
6832;SDS011;3454;42.654;23.378;2024-01-06T02:25:01;42.80;;;20.90;;
6832;SDS011;3454;42.654;23.378;2024-01-06T02:27:32;40.40;;;22.33;;
6832;SDS011;3454;42.654;23.378;2024-01-06T02:29:58;31.40;;;16.97;;
6832;SDS011;3454;42.654;23.378;2024-01-06T02:32:23;20.83;;;12.13;;
6832;SDS011;3454;42.654;23.378;2024-01-06T02:34:49;16.83;;;9.80;;
6832;SDS011;3454;42.654;23.378;2024-01-06T02:37:14;15.30;;;9.80;;
6832;SDS011;3454;42.654;23.378;2024-01-06T02:39:40;19.93;;;11.93;;
6832;SDS011;3454;42.654;23.378;2024-01-06T02:42:05;15.97;;;9.20;;
6832;SDS011;3454;42.654;23.378;2024-01-06T02:44:31;18.07;;;8.83;;
6832;SDS011;3454;42.654;23.378;2024-01-06T02:46:57;12.67;;;7.20;;
6832;SDS011;3454;42.654;23.378;2024-01-06T02:49:23;14.67;;;7.27;;
6832;SDS011;3454;42.654;23.378;2024-01-06T02:51:48;15.60;;;8.00;;
6832;SDS011;3454;42.654;23.378;2024-01-06T02:54:14;15.07;;;7.50;;
6832;SDS011;3454;42.654;23.378;2024-01-06T02:56:39;12.87;;;7.00;;
6832;SDS011;3454;42.654;23.378;2024-01-06T02:59:05;10.97;;;6.80;;
6832;SDS011;3454;42.654;23.378;2024-01-06T03:01:31;14.00;;;7.40;;
6832;SDS011;3454;42.654;23.378;2024-01-06T03:03:57;22.30;;;9.97;;
6832;SDS011;3454;42.654;23.378;2024-01-06T03:06:23;13.37;;;7.77;;
6832;SDS011;3454;42.654;23.378;2024-01-06T03:08:48;11.50;;;6.97;;
6832;SDS011;3454;42.654;23.378;2024-01-06T03:11:14;14.20;;;8.13;;
6832;SDS011;3454;42.654;23.378;2024-01-06T03:13:39;18.47;;;9.33;;
6832;SDS011;3454;42.654;23.378;2024-01-06T03:16:05;21.27;;;9.37;;
6832;SDS011;3454;42.654;23.378;2024-01-06T03:18:31;17.00;;;7.93;;
6832;SDS011;3454;42.654;23.378;2024-01-06T03:20:56;16.17;;;8.07;;
6832;SDS011;3454;42.654;23.378;2024-01-06T03:23:22;12.97;;;8.80;;
6832;SDS011;3454;42.654;23.378;2024-01-06T03:25:47;12.57;;;7.63;;
6832;SDS011;3454;42.654;23.378;2024-01-06T03:28:13;12.27;;;7.00;;
6832;SDS011;3454;42.654;23.378;2024-01-06T03:30:38;10.97;;;6.43;;
6832;SDS011;3454;42.654;23.378;2024-01-06T03:33:05;10.37;;;5.37;;
6832;SDS011;3454;42.654;23.378;2024-01-06T03:35:31;8.47;;;4.63;;
6832;SDS011;3454;42.654;23.378;2024-01-06T03:37:57;8.87;;;5.30;;
6832;SDS011;3454;42.654;23.378;2024-01-06T03:40:22;11.07;;;5.40;;
6832;SDS011;3454;42.654;23.378;2024-01-06T03:42:48;12.17;;;5.27;;
6832;SDS011;3454;42.654;23.378;2024-01-06T03:45:14;8.20;;;4.07;;
6832;SDS011;3454;42.654;23.378;2024-01-06T03:47:40;10.10;;;5.10;;
6832;SDS011;3454;42.654;23.378;2024-01-06T03:50:05;8.20;;;4.73;;
6832;SDS011;3454;42.654;23.378;2024-01-06T03:52:31;8.37;;;5.47;;
6832;SDS011;3454;42.654;23.378;2024-01-06T03:54:57;9.60;;;4.90;;
6832;SDS011;3454;42.654;23.378;2024-01-06T03:57:22;6.57;;;4.37;;
6832;SDS011;3454;42.654;23.378;2024-01-06T03:59:48;10.03;;;4.43;;
6832;SDS011;3454;42.654;23.378;2024-01-06T04:02:13;10.00;;;4.60;;
6832;SDS011;3454;42.654;23.378;2024-01-06T04:04:39;7.13;;;3.93;;
6832;SDS011;3454;42.654;23.378;2024-01-06T04:07:04;8.40;;;4.10;;
6832;SDS011;3454;42.654;23.378;2024-01-06T04:09:31;6.23;;;3.90;;
6832;SDS011;3454;42.654;23.378;2024-01-06T04:11:57;10.23;;;5.20;;
6832;SDS011;3454;42.654;23.378;2024-01-06T04:14:23;9.83;;;5.77;;
6832;SDS011;3454;42.654;23.378;2024-01-06T04:16:56;8.53;;;4.77;;
6832;SDS011;3454;42.654;23.378;2024-01-06T04:19:22;8.40;;;4.50;;
6832;SDS011;3454;42.654;23.378;2024-01-06T04:21:47;11.43;;;5.37;;
6832;SDS011;3454;42.654;23.378;2024-01-06T04:24:13;8.13;;;4.67;;
6832;SDS011;3454;42.654;23.378;2024-01-06T04:26:38;6.80;;;4.33;;
6832;SDS011;3454;42.654;23.378;2024-01-06T04:29:04;7.27;;;4.70;;
6832;SDS011;3454;42.654;23.378;2024-01-06T04:31:30;6.17;;;4.10;;
6832;SDS011;3454;42.654;23.378;2024-01-06T04:33:56;6.83;;;4.30;;
6832;SDS011;3454;42.654;23.378;2024-01-06T04:36:21;7.77;;;4.30;;
6832;SDS011;3454;42.654;23.378;2024-01-06T04:38:48;7.73;;;4.70;;
6832;SDS011;3454;42.654;23.378;2024-01-06T04:41:13;5.87;;;4.07;;
6832;SDS011;3454;42.654;23.378;2024-01-06T04:43:39;3.87;;;3.23;;
6832;SDS011;3454;42.654;23.378;2024-01-06T04:46:04;7.30;;;3.70;;
6832;SDS011;3454;42.654;23.378;2024-01-06T04:48:30;9.13;;;4.10;;
6832;SDS011;3454;42.654;23.378;2024-01-06T04:50:56;9.30;;;4.67;;
6832;SDS011;3454;42.654;23.378;2024-01-06T04:53:21;7.97;;;4.33;;
6832;SDS011;3454;42.654;23.378;2024-01-06T04:55:47;6.13;;;3.67;;
6832;SDS011;3454;42.654;23.378;2024-01-06T04:58:12;7.17;;;4.73;;
6832;SDS011;3454;42.654;23.378;2024-01-06T05:00:38;8.23;;;4.23;;
6832;SDS011;3454;42.654;23.378;2024-01-06T05:03:03;7.93;;;4.10;;
6832;SDS011;3454;42.654;23.378;2024-01-06T05:05:30;7.70;;;4.77;;
6832;SDS011;3454;42.654;23.378;2024-01-06T05:07:56;8.83;;;4.43;;
6832;SDS011;3454;42.654;23.378;2024-01-06T05:10:22;8.37;;;4.93;;
6832;SDS011;3454;42.654;23.378;2024-01-06T05:12:48;8.80;;;5.80;;
6832;SDS011;3454;42.654;23.378;2024-01-06T05:15:14;9.57;;;4.70;;
6832;SDS011;3454;42.654;23.378;2024-01-06T05:17:39;9.20;;;5.03;;
6832;SDS011;3454;42.654;23.378;2024-01-06T05:20:05;9.60;;;5.67;;
6832;SDS011;3454;42.654;23.378;2024-01-06T05:22:31;9.23;;;5.13;;
6832;SDS011;3454;42.654;23.378;2024-01-06T05:24:57;10.10;;;5.13;;
6832;SDS011;3454;42.654;23.378;2024-01-06T05:27:22;10.13;;;5.47;;
6832;SDS011;3454;42.654;23.378;2024-01-06T05:29:48;7.23;;;4.83;;
6832;SDS011;3454;42.654;23.378;2024-01-06T05:32:15;7.17;;;4.87;;
6832;SDS011;3454;42.654;23.378;2024-01-06T05:34:42;8.33;;;5.57;;
6832;SDS011;3454;42.654;23.378;2024-01-06T05:37:09;8.47;;;4.90;;
6832;SDS011;3454;42.654;23.378;2024-01-06T05:39:37;8.47;;;5.30;;
6832;SDS011;3454;42.654;23.378;2024-01-06T05:42:03;8.50;;;4.80;;
6832;SDS011;3454;42.654;23.378;2024-01-06T05:44:30;11.07;;;5.27;;
6832;SDS011;3454;42.654;23.378;2024-01-06T05:46:56;8.70;;;5.53;;
6832;SDS011;3454;42.654;23.378;2024-01-06T05:49:22;7.03;;;5.07;;
6832;SDS011;3454;42.654;23.378;2024-01-06T05:51:48;7.33;;;5.10;;
6832;SDS011;3454;42.654;23.378;2024-01-06T05:54:14;7.33;;;4.33;;
6832;SDS011;3454;42.654;23.378;2024-01-06T05:56:40;10.60;;;4.27;;
6832;SDS011;3454;42.654;23.378;2024-01-06T05:59:05;7.47;;;3.53;;
6832;SDS011;3454;42.654;23.378;2024-01-06T06:01:31;11.23;;;4.60;;
6832;SDS011;3454;42.654;23.378;2024-01-06T06:03:57;6.10;;;3.57;;
6832;SDS011;3454;42.654;23.378;2024-01-06T06:06:23;5.23;;;3.57;;
6832;SDS011;3454;42.654;23.378;2024-01-06T06:08:48;6.13;;;3.03;;
6832;SDS011;3454;42.654;23.378;2024-01-06T06:11:14;4.03;;;2.43;;
6832;SDS011;3454;42.654;23.378;2024-01-06T06:13:40;5.23;;;3.13;;
6832;SDS011;3454;42.654;23.378;2024-01-06T06:16:07;5.53;;;3.10;;
6832;SDS011;3454;42.654;23.378;2024-01-06T06:18:34;5.27;;;2.97;;
6832;SDS011;3454;42.654;23.378;2024-01-06T06:21:00;6.40;;;3.40;;
6832;SDS011;3454;42.654;23.378;2024-01-06T06:23:33;6.60;;;3.87;;
6832;SDS011;3454;42.654;23.378;2024-01-06T06:25:59;12.30;;;4.57;;
6832;SDS011;3454;42.654;23.378;2024-01-06T06:28:24;6.13;;;3.80;;
6832;SDS011;3454;42.654;23.378;2024-01-06T06:30:50;8.43;;;3.53;;
6832;SDS011;3454;42.654;23.378;2024-01-06T06:33:16;8.27;;;3.63;;
6832;SDS011;3454;42.654;23.378;2024-01-06T06:35:42;6.10;;;3.47;;
6832;SDS011;3454;42.654;23.378;2024-01-06T06:38:08;9.83;;;4.10;;
6832;SDS011;3454;42.654;23.378;2024-01-06T06:40:33;11.90;;;5.03;;
6832;SDS011;3454;42.654;23.378;2024-01-06T06:42:59;8.67;;;4.27;;
6832;SDS011;3454;42.654;23.378;2024-01-06T06:45:24;12.27;;;4.70;;
6832;SDS011;3454;42.654;23.378;2024-01-06T06:47:50;9.80;;;4.40;;
6832;SDS011;3454;42.654;23.378;2024-01-06T06:50:18;12.47;;;4.73;;
6832;SDS011;3454;42.654;23.378;2024-01-06T06:52:46;7.23;;;3.80;;
6832;SDS011;3454;42.654;23.378;2024-01-06T06:55:11;7.00;;;3.60;;
6832;SDS011;3454;42.654;23.378;2024-01-06T06:57:38;4.73;;;3.07;;
6832;SDS011;3454;42.654;23.378;2024-01-06T07:00:04;6.63;;;3.07;;
6832;SDS011;3454;42.654;23.378;2024-01-06T07:02:32;10.13;;;3.53;;
6832;SDS011;3454;42.654;23.378;2024-01-06T07:04:59;4.80;;;3.27;;
6832;SDS011;3454;42.654;23.378;2024-01-06T07:07:24;4.97;;;3.47;;
6832;SDS011;3454;42.654;23.378;2024-01-06T07:09:50;12.73;;;3.80;;
6832;SDS011;3454;42.654;23.378;2024-01-06T07:12:15;6.10;;;3.93;;
6832;SDS011;3454;42.654;23.378;2024-01-06T07:14:41;9.97;;;4.87;;
6832;SDS011;3454;42.654;23.378;2024-01-06T07:17:06;7.90;;;4.33;;
6832;SDS011;3454;42.654;23.378;2024-01-06T07:19:34;7.63;;;3.80;;
6832;SDS011;3454;42.654;23.378;2024-01-06T07:21:59;6.27;;;4.57;;
6832;SDS011;3454;42.654;23.378;2024-01-06T07:24:25;7.97;;;4.07;;
6832;SDS011;3454;42.654;23.378;2024-01-06T07:26:51;7.63;;;4.57;;
6832;SDS011;3454;42.654;23.378;2024-01-06T07:29:17;10.73;;;5.80;;
6832;SDS011;3454;42.654;23.378;2024-01-06T07:31:44;10.93;;;6.40;;
6832;SDS011;3454;42.654;23.378;2024-01-06T07:34:10;14.63;;;6.63;;
6832;SDS011;3454;42.654;23.378;2024-01-06T07:36:35;9.60;;;5.93;;
6832;SDS011;3454;42.654;23.378;2024-01-06T07:39:01;12.80;;;6.63;;
6832;SDS011;3454;42.654;23.378;2024-01-06T07:41:28;12.67;;;6.17;;
6832;SDS011;3454;42.654;23.378;2024-01-06T07:43:56;12.57;;;5.13;;
6832;SDS011;3454;42.654;23.378;2024-01-06T07:46:21;10.63;;;5.00;;
6832;SDS011;3454;42.654;23.378;2024-01-06T07:48:47;29.30;;;15.20;;
6832;SDS011;3454;42.654;23.378;2024-01-06T07:51:13;8.80;;;6.37;;
6832;SDS011;3454;42.654;23.378;2024-01-06T07:53:38;10.10;;;6.07;;
6832;SDS011;3454;42.654;23.378;2024-01-06T07:56:05;12.20;;;6.57;;
6832;SDS011;3454;42.654;23.378;2024-01-06T07:58:31;10.03;;;5.20;;
6832;SDS011;3454;42.654;23.378;2024-01-06T08:00:58;9.53;;;5.10;;
6832;SDS011;3454;42.654;23.378;2024-01-06T08:03:23;7.97;;;5.13;;
6832;SDS011;3454;42.654;23.378;2024-01-06T08:05:50;12.17;;;4.40;;
6832;SDS011;3454;42.654;23.378;2024-01-06T08:08:15;10.87;;;4.90;;
6832;SDS011;3454;42.654;23.378;2024-01-06T08:10:42;10.40;;;4.83;;
6832;SDS011;3454;42.654;23.378;2024-01-06T08:13:08;6.53;;;4.50;;
6832;SDS011;3454;42.654;23.378;2024-01-06T08:15:33;5.97;;;3.97;;
6832;SDS011;3454;42.654;23.378;2024-01-06T08:17:59;10.80;;;3.83;;
6832;SDS011;3454;42.654;23.378;2024-01-06T08:20:24;12.87;;;4.53;;
6832;SDS011;3454;42.654;23.378;2024-01-06T08:22:50;11.73;;;4.53;;
6832;SDS011;3454;42.654;23.378;2024-01-06T08:25:15;7.70;;;4.13;;
6832;SDS011;3454;42.654;23.378;2024-01-06T08:27:42;14.93;;;4.57;;
6832;SDS011;3454;42.654;23.378;2024-01-06T08:30:08;17.20;;;4.23;;
6832;SDS011;3454;42.654;23.378;2024-01-06T08:32:34;9.53;;;3.83;;
6832;SDS011;3454;42.654;23.378;2024-01-06T08:35:00;12.73;;;4.03;;
6832;SDS011;3454;42.654;23.378;2024-01-06T08:37:25;12.50;;;4.10;;
6832;SDS011;3454;42.654;23.378;2024-01-06T08:39:51;8.80;;;3.67;;
6832;SDS011;3454;42.654;23.378;2024-01-06T08:42:16;8.87;;;3.43;;
6832;SDS011;3454;42.654;23.378;2024-01-06T08:44:42;9.07;;;3.57;;
6832;SDS011;3454;42.654;23.378;2024-01-06T08:47:08;7.03;;;3.03;;
6832;SDS011;3454;42.654;23.378;2024-01-06T08:49:35;4.53;;;2.70;;
6832;SDS011;3454;42.654;23.378;2024-01-06T08:52:00;10.77;;;3.43;;
6832;SDS011;3454;42.654;23.378;2024-01-06T08:54:26;4.57;;;2.90;;
6832;SDS011;3454;42.654;23.378;2024-01-06T08:56:51;6.73;;;3.87;;
6832;SDS011;3454;42.654;23.378;2024-01-06T08:59:17;9.00;;;4.27;;
6832;SDS011;3454;42.654;23.378;2024-01-06T09:01:43;15.50;;;4.60;;
6832;SDS011;3454;42.654;23.378;2024-01-06T09:04:08;16.20;;;6.27;;
6832;SDS011;3454;42.654;23.378;2024-01-06T09:06:36;11.97;;;5.63;;
6832;SDS011;3454;42.654;23.378;2024-01-06T09:09:02;13.13;;;5.50;;
6832;SDS011;3454;42.654;23.378;2024-01-06T09:11:27;12.87;;;5.07;;
6832;SDS011;3454;42.654;23.378;2024-01-06T09:13:53;24.97;;;8.73;;
6832;SDS011;3454;42.654;23.378;2024-01-06T09:16:19;21.10;;;9.50;;
6832;SDS011;3454;42.654;23.378;2024-01-06T09:18:45;19.93;;;8.87;;
6832;SDS011;3454;42.654;23.378;2024-01-06T09:21:10;16.90;;;7.77;;
6832;SDS011;3454;42.654;23.378;2024-01-06T09:23:36;23.53;;;9.80;;
6832;SDS011;3454;42.654;23.378;2024-01-06T09:26:02;24.53;;;11.00;;
6832;SDS011;3454;42.654;23.378;2024-01-06T09:28:28;28.23;;;12.53;;
6832;SDS011;3454;42.654;23.378;2024-01-06T09:30:53;33.83;;;16.77;;
6832;SDS011;3454;42.654;23.378;2024-01-06T09:33:24;28.77;;;15.47;;
6832;SDS011;3454;42.654;23.378;2024-01-06T09:35:49;30.20;;;17.13;;
6832;SDS011;3454;42.654;23.378;2024-01-06T09:38:15;31.60;;;17.10;;
6832;SDS011;3454;42.654;23.378;2024-01-06T09:40:43;32.20;;;16.03;;
6832;SDS011;3454;42.654;23.378;2024-01-06T09:43:11;36.33;;;16.40;;
6832;SDS011;3454;42.654;23.378;2024-01-06T09:45:40;39.00;;;14.00;;
6832;SDS011;3454;42.654;23.378;2024-01-06T09:48:15;32.10;;;15.53;;
6832;SDS011;3454;42.654;23.378;2024-01-06T09:50:43;30.80;;;15.03;;
6832;SDS011;3454;42.654;23.378;2024-01-06T09:53:12;34.33;;;15.40;;
6832;SDS011;3454;42.654;23.378;2024-01-06T09:55:39;24.90;;;14.30;;
6832;SDS011;3454;42.654;23.378;2024-01-06T09:58:05;28.93;;;15.27;;
6832;SDS011;3454;42.654;23.378;2024-01-06T10:00:31;34.63;;;15.43;;
6832;SDS011;3454;42.654;23.378;2024-01-06T10:02:57;28.23;;;14.53;;
6832;SDS011;3454;42.654;23.378;2024-01-06T10:05:23;30.10;;;14.70;;
6832;SDS011;3454;42.654;23.378;2024-01-06T10:07:48;29.67;;;15.47;;
6832;SDS011;3454;42.654;23.378;2024-01-06T10:10:14;33.00;;;14.67;;
6832;SDS011;3454;42.654;23.378;2024-01-06T10:12:41;30.97;;;14.90;;
6832;SDS011;3454;42.654;23.378;2024-01-06T10:15:11;32.47;;;16.03;;
6832;SDS011;3454;42.654;23.378;2024-01-06T10:17:39;29.37;;;15.03;;
6832;SDS011;3454;42.654;23.378;2024-01-06T10:20:07;31.30;;;14.73;;
6832;SDS011;3454;42.654;23.378;2024-01-06T10:22:35;36.03;;;15.60;;
6832;SDS011;3454;42.654;23.378;2024-01-06T10:25:01;31.47;;;14.90;;
6832;SDS011;3454;42.654;23.378;2024-01-06T10:27:27;30.87;;;16.47;;
6832;SDS011;3454;42.654;23.378;2024-01-06T10:29:53;33.90;;;16.83;;
6832;SDS011;3454;42.654;23.378;2024-01-06T10:32:18;25.93;;;15.50;;
6832;SDS011;3454;42.654;23.378;2024-01-06T10:34:44;29.17;;;15.43;;
6832;SDS011;3454;42.654;23.378;2024-01-06T10:37:10;27.83;;;14.50;;
6832;SDS011;3454;42.654;23.378;2024-01-06T10:39:36;25.27;;;12.30;;
6832;SDS011;3454;42.654;23.378;2024-01-06T10:42:01;25.20;;;12.03;;
6832;SDS011;3454;42.654;23.378;2024-01-06T10:44:30;31.30;;;12.30;;
6832;SDS011;3454;42.654;23.378;2024-01-06T10:46:57;22.97;;;11.17;;
6832;SDS011;3454;42.654;23.378;2024-01-06T10:49:23;20.60;;;10.50;;
6832;SDS011;3454;42.654;23.378;2024-01-06T10:51:50;22.13;;;10.30;;
6832;SDS011;3454;42.654;23.378;2024-01-06T10:54:17;24.07;;;11.57;;
6832;SDS011;3454;42.654;23.378;2024-01-06T10:56:44;24.60;;;11.00;;
6832;SDS011;3454;42.654;23.378;2024-01-06T10:59:11;23.57;;;11.10;;
6832;SDS011;3454;42.654;23.378;2024-01-06T11:01:38;19.53;;;11.60;;
6832;SDS011;3454;42.654;23.378;2024-01-06T11:04:05;27.20;;;11.43;;
6832;SDS011;3454;42.654;23.378;2024-01-06T11:06:32;16.83;;;8.90;;
6832;SDS011;3454;42.654;23.378;2024-01-06T11:09:02;19.43;;;9.00;;
6832;SDS011;3454;42.654;23.378;2024-01-06T11:11:39;14.23;;;7.80;;
6832;SDS011;3454;42.654;23.378;2024-01-06T11:16:51;12.60;;;7.10;;
6832;SDS011;3454;42.654;23.378;2024-01-06T11:22:20;15.50;;;7.57;;
6832;SDS011;3454;42.654;23.378;2024-01-06T11:24:51;13.27;;;8.97;;
6832;SDS011;3454;42.654;23.378;2024-01-06T11:27:19;23.37;;;10.63;;
6832;SDS011;3454;42.654;23.378;2024-01-06T11:29:47;19.70;;;8.80;;
6832;SDS011;3454;42.654;23.378;2024-01-06T11:34:53;23.10;;;9.33;;
6832;SDS011;3454;42.654;23.378;2024-01-06T11:37:25;17.93;;;9.27;;
6832;SDS011;3454;42.654;23.378;2024-01-06T11:39:59;17.00;;;7.97;;
6832;SDS011;3454;42.654;23.378;2024-01-06T11:42:31;13.37;;;6.40;;
6832;SDS011;3454;42.654;23.378;2024-01-06T11:45:01;12.00;;;6.50;;
6832;SDS011;3454;42.654;23.378;2024-01-06T11:47:27;17.67;;;7.72;;
6832;SDS011;3454;42.654;23.378;2024-01-06T11:49:55;14.45;;;6.47;;
6832;SDS011;3454;42.654;23.378;2024-01-06T11:52:23;18.05;;;8.93;;
6832;SDS011;3454;42.654;23.378;2024-01-06T11:54:50;19.38;;;8.70;;
6832;SDS011;3454;42.654;23.378;2024-01-06T11:57:18;19.23;;;7.78;;
6832;SDS011;3454;42.654;23.378;2024-01-06T11:59:44;13.98;;;6.80;;
6832;SDS011;3454;42.654;23.378;2024-01-06T12:02:12;15.30;;;6.95;;
6832;SDS011;3454;42.654;23.378;2024-01-06T12:04:39;12.15;;;7.68;;
6832;SDS011;3454;42.654;23.378;2024-01-06T12:07:13;16.23;;;8.95;;
6832;SDS011;3454;42.654;23.378;2024-01-06T12:09:40;14.68;;;8.10;;
6832;SDS011;3454;42.654;23.378;2024-01-06T12:12:05;19.00;;;10.00;;
6832;SDS011;3454;42.654;23.378;2024-01-06T12:14:31;16.83;;;10.35;;
6832;SDS011;3454;42.654;23.378;2024-01-06T12:17:05;17.77;;;10.55;;
6832;SDS011;3454;42.654;23.378;2024-01-06T12:19:31;20.17;;;11.38;;
6832;SDS011;3454;42.654;23.378;2024-01-06T12:21:58;18.95;;;10.02;;
6832;SDS011;3454;42.654;23.378;2024-01-06T12:24:23;18.55;;;10.32;;
6832;SDS011;3454;42.654;23.378;2024-01-06T12:26:52;28.70;;;13.82;;
6832;SDS011;3454;42.654;23.378;2024-01-06T12:29:17;15.77;;;9.98;;
6832;SDS011;3454;42.654;23.378;2024-01-06T12:31:44;14.05;;;8.75;;
6832;SDS011;3454;42.654;23.378;2024-01-06T12:34:10;10.75;;;6.55;;
6832;SDS011;3454;42.654;23.378;2024-01-06T12:36:39;13.32;;;8.70;;
6832;SDS011;3454;42.654;23.378;2024-01-06T12:39:09;15.95;;;9.25;;
6832;SDS011;3454;42.654;23.378;2024-01-06T12:41:39;19.40;;;9.30;;
6832;SDS011;3454;42.654;23.378;2024-01-06T12:44:08;16.20;;;8.27;;
6832;SDS011;3454;42.654;23.378;2024-01-06T12:46:34;16.10;;;7.75;;
6832;SDS011;3454;42.654;23.378;2024-01-06T12:48:59;13.93;;;8.57;;
6832;SDS011;3454;42.654;23.378;2024-01-06T12:51:26;17.33;;;7.40;;
6832;SDS011;3454;42.654;23.378;2024-01-06T12:53:51;13.57;;;6.85;;
6832;SDS011;3454;42.654;23.378;2024-01-06T12:56:19;15.32;;;8.32;;
6832;SDS011;3454;42.654;23.378;2024-01-06T12:58:45;11.38;;;6.03;;
6832;SDS011;3454;42.654;23.378;2024-01-06T13:01:11;14.60;;;6.80;;
6832;SDS011;3454;42.654;23.378;2024-01-06T13:03:36;12.77;;;6.25;;
6832;SDS011;3454;42.654;23.378;2024-01-06T13:06:02;12.35;;;5.57;;
6832;SDS011;3454;42.654;23.378;2024-01-06T13:08:28;11.52;;;6.10;;
6832;SDS011;3454;42.654;23.378;2024-01-06T13:10:55;9.88;;;6.07;;
6832;SDS011;3454;42.654;23.378;2024-01-06T13:13:21;11.20;;;6.18;;
6832;SDS011;3454;42.654;23.378;2024-01-06T13:15:46;9.18;;;5.40;;
6832;SDS011;3454;42.654;23.378;2024-01-06T13:18:12;10.48;;;5.55;;
6832;SDS011;3454;42.654;23.378;2024-01-06T13:20:38;6.15;;;3.85;;
6832;SDS011;3454;42.654;23.378;2024-01-06T13:23:06;9.15;;;5.03;;
6832;SDS011;3454;42.654;23.378;2024-01-06T13:25:32;6.93;;;3.58;;
6832;SDS011;3454;42.654;23.378;2024-01-06T13:27:58;7.93;;;4.45;;
6832;SDS011;3454;42.654;23.378;2024-01-06T13:30:25;10.13;;;4.53;;
6832;SDS011;3454;42.654;23.378;2024-01-06T13:32:51;7.15;;;4.13;;
6832;SDS011;3454;42.654;23.378;2024-01-06T13:35:19;6.82;;;4.13;;
6832;SDS011;3454;42.654;23.378;2024-01-06T13:37:45;8.77;;;4.00;;
6832;SDS011;3454;42.654;23.378;2024-01-06T13:40:13;5.35;;;3.90;;
6832;SDS011;3454;42.654;23.378;2024-01-06T13:42:39;11.65;;;5.20;;
6832;SDS011;3454;42.654;23.378;2024-01-06T13:45:05;9.55;;;5.20;;
6832;SDS011;3454;42.654;23.378;2024-01-06T13:47:32;10.07;;;4.97;;
6832;SDS011;3454;42.654;23.378;2024-01-06T13:49:58;11.23;;;5.18;;
6832;SDS011;3454;42.654;23.378;2024-01-06T13:52:24;9.95;;;4.05;;
6832;SDS011;3454;42.654;23.378;2024-01-06T13:54:49;5.68;;;4.15;;
6832;SDS011;3454;42.654;23.378;2024-01-06T13:57:17;6.38;;;4.00;;
6832;SDS011;3454;42.654;23.378;2024-01-06T13:59:42;8.02;;;4.13;;
6832;SDS011;3454;42.654;23.378;2024-01-06T14:02:08;10.23;;;4.18;;
6832;SDS011;3454;42.654;23.378;2024-01-06T14:04:34;10.40;;;4.90;;
6832;SDS011;3454;42.654;23.378;2024-01-06T14:07:01;9.30;;;4.60;;
6832;SDS011;3454;42.654;23.378;2024-01-06T14:09:27;9.93;;;4.60;;
6832;SDS011;3454;42.654;23.378;2024-01-06T14:11:53;7.27;;;4.43;;
6832;SDS011;3454;42.654;23.378;2024-01-06T14:14:19;12.03;;;4.50;;
6832;SDS011;3454;42.654;23.378;2024-01-06T14:16:45;10.53;;;5.17;;
6832;SDS011;3454;42.654;23.378;2024-01-06T14:19:12;11.13;;;4.87;;
6832;SDS011;3454;42.654;23.378;2024-01-06T14:21:39;9.53;;;4.77;;
6832;SDS011;3454;42.654;23.378;2024-01-06T14:24:05;10.82;;;5.50;;
6832;SDS011;3454;42.654;23.378;2024-01-06T14:26:31;23.57;;;9.20;;
6832;SDS011;3454;42.654;23.378;2024-01-06T14:28:57;13.27;;;5.50;;
6832;SDS011;3454;42.654;23.378;2024-01-06T14:31:24;18.70;;;8.43;;
6832;SDS011;3454;42.654;23.378;2024-01-06T14:33:52;12.23;;;4.97;;
6832;SDS011;3454;42.654;23.378;2024-01-06T14:36:23;9.40;;;5.17;;
6832;SDS011;3454;42.654;23.378;2024-01-06T14:38:49;10.40;;;4.67;;
6832;SDS011;3454;42.654;23.378;2024-01-06T14:41:14;8.70;;;3.93;;
6832;SDS011;3454;42.654;23.378;2024-01-06T14:43:40;17.73;;;5.63;;
6832;SDS011;3454;42.654;23.378;2024-01-06T14:46:05;10.90;;;5.20;;
6832;SDS011;3454;42.654;23.378;2024-01-06T14:48:31;10.52;;;5.55;;
6832;SDS011;3454;42.654;23.378;2024-01-06T14:50:57;9.02;;;5.75;;